Rayle, Georgia
Current Conditions -  °F | °C
As of 2:55 PM on Sunday 21 Dec 2014 (Local Time) from KIIY Reporting Station
Broken Clouds Broken Clouds  
Wind Chill: 13°   Ceiling: 2500
Heat Index: 13°   Visibility: 10mi
Dew Point: 10°   Wind: 5mph
Humidity: 82%   Direction: 100°E
Pressure: 30.14"   Gusts: NA
Location:  33.79°N, 82.9°W
Report Text: KIIY 211955Z AUTO 10004KT 10SM BKN025 13/10 A3014 RMK AO2
Loading
Personal Weather Stations






























Interactive Weather Map New forecast layout! Learn more

10-Day Weather Forecast

Advertisements
Track Severe Weather on mobile